Time;durP1;ratioP1;P1;durP2;ratioP2;P2;SDS_P1;SDS_P2;PMS_P1;PMS_P2;Temp;Humidity;BMP_temperature;BMP_pressure;BME280_temperature;BME280_humidity;BME280_pressure;Samples;Min_cycle;Max_cycle;Signal;HPM_P1;HPM_P2
2023/10/24 00:02:12;;;;;;;12.82;9.20;;;;;;;;;;4919064;29;20042;-75
2023/10/24 00:04:38;;;;;;;15.63;9.02;;;;;;;;;;4903311;29;20047;-75
2023/10/24 00:07:04;;;;;;;13.73;9.68;;;;;;;;;;4903195;29;20044;-75
2023/10/24 00:09:31;;;;;;;15.60;9.80;;;;;;;;;;4888180;29;20519;-75
2023/10/24 00:11:57;;;;;;;14.88;9.60;;;;;;;;;;4901023;29;20395;-75
2023/10/24 00:14:23;;;;;;;16.10;8.80;;;;;;;;;;4918855;29;20075;-74
2023/10/24 00:16:49;;;;;;;13.57;9.02;;;;;;;;;;4918542;29;20039;-74
2023/10/24 00:19:15;;;;;;;17.05;9.25;;;;;;;;;;4902787;29;20040;-75
2023/10/24 00:21:41;;;;;;;16.05;9.35;;;;;;;;;;4900453;29;20481;-75
2023/10/24 00:24:08;;;;;;;18.90;10.60;;;;;;;;;;4918620;29;20046;-75
2023/10/24 00:26:34;;;;;;;14.95;10.60;;;;;;;;;;4888691;29;20047;-74
2023/10/24 00:29:00;;;;;;;17.23;9.88;;;;;;;;;;4902587;29;20135;-75
2023/10/24 00:31:26;;;;;;;14.10;9.07;;;;;;;;;;4916222;29;20392;-74
2023/10/24 00:33:52;;;;;;;13.13;8.95;;;;;;;;;;4902722;29;20052;-75
2023/10/24 00:36:18;;;;;;;14.05;8.98;;;;;;;;;;4918221;29;20039;-75
2023/10/24 00:38:44;;;;;;;17.27;9.93;;;;;;;;;;4902504;29;20079;-74
2023/10/24 00:41:10;;;;;;;14.90;8.95;;;;;;;;;;4917631;29;20047;-74
2023/10/24 00:43:37;;;;;;;13.23;9.48;;;;;;;;;;4900372;29;20044;-74
2023/10/24 00:46:03;;;;;;;13.70;9.15;;;;;;;;;;4900823;29;20079;-74
2023/10/24 00:48:30;;;;;;;14.95;9.52;;;;;;;;;;4917225;29;20131;-74
2023/10/24 00:50:56;;;;;;;15.30;8.65;;;;;;;;;;4902262;29;20046;-76
2023/10/24 00:53:29;;;;;;;14.82;9.82;;;;;;;;;;4918277;29;20058;-73
2023/10/24 00:55:55;;;;;;;17.75;8.98;;;;;;;;;;4902265;29;21013;-73
2023/10/24 00:58:21;;;;;;;15.65;9.50;;;;;;;;;;4917683;29;20091;-72
2023/10/24 01:00:47;;;;;;;16.17;9.55;;;;;;;;;;4920367;29;20047;-72
2023/10/24 01:03:14;;;;;;;13.93;9.40;;;;;;;;;;4918516;29;20042;-76
2023/10/24 01:05:41;;;;;;;16.45;9.88;;;;;;;;;;4917927;29;20036;-76
2023/10/24 01:08:07;;;;;;;14.02;9.65;;;;;;;;;;4915326;29;20050;-76
2023/10/24 01:10:33;;;;;;;15.27;9.40;;;;;;;;;;4901995;29;20421;-77
2023/10/24 01:12:59;;;;;;;16.73;9.68;;;;;;;;;;4900772;29;20044;-76
2023/10/24 01:15:25;;;;;;;18.23;9.63;;;;;;;;;;4917448;29;20043;-77
2023/10/24 01:17:51;;;;;;;14.82;9.60;;;;;;;;;;4902015;29;20044;-76
2023/10/24 01:20:18;;;;;;;18.25;10.68;;;;;;;;;;4901674;29;20453;-76
2023/10/24 01:22:47;;;;;;;13.90;9.82;;;10.60;99.90;;;;;;4917997;29;20122;-76
2023/10/24 01:25:14;;;;;;;16.27;9.88;;;;;;;;;;4901407;29;20051;-76
2023/10/24 01:27:42;;;;;;;22.75;10.93;;;;;;;;;;4917497;29;20067;-76
2023/10/24 01:30:09;;;;;;;17.17;9.70;;;;;;;;;;4917432;29;20044;-76
2023/10/24 01:32:35;;;;;;;18.17;11.00;;;;;;;;;;4899428;29;20118;-76
2023/10/24 01:35:02;;;;;;;17.05;9.90;;;;;;;;;;4901806;29;20047;-76
2023/10/24 01:37:28;;;;;;;17.55;10.27;;;;;;;;;;4917476;29;20066;-76
2023/10/24 01:39:54;;;;;;;17.67;10.77;;;;;;;;;;4891343;29;20365;-76
2023/10/24 01:42:20;;;;;;;15.27;9.88;;;;;;;;;;4901724;29;20081;-77
2023/10/24 01:44:46;;;;;;;14.65;9.63;;;;;;;;;;4901489;29;20489;-76
2023/10/24 01:47:12;;;;;;;14.80;9.93;;;;;;;;;;4901715;29;20050;-76
2023/10/24 01:49:39;;;;;;;14.15;10.20;;;;;;;;;;4916917;29;20489;-76
2023/10/24 01:52:05;;;;;;;15.88;10.40;;;;;;;;;;4917318;29;20071;-76
2023/10/24 01:54:31;;;;;;;13.57;9.88;;;;;;;;;;4901230;29;20047;-77
2023/10/24 01:56:57;;;;;;;15.80;10.07;;;;;;;;;;4916872;29;20044;-76
2023/10/24 01:59:23;;;;;;;17.02;9.95;;;;;;;;;;4904380;29;20447;-75
2023/10/24 02:01:49;;;;;;;17.77;10.65;;;;;;;;;;4907592;29;20039;-76
2023/10/24 02:04:15;;;;;;;16.23;10.48;;;;;;;;;;4923576;29;20456;-76
2023/10/24 02:06:41;;;;;;;17.30;10.77;;;;;;;;;;4907821;29;20079;-76
2023/10/24 02:09:07;;;;;;;15.90;10.43;;;;;;;;;;4907791;29;20122;-76
2023/10/24 02:11:34;;;;;;;14.07;9.77;;;;;;;;;;4923371;29;20044;-76
2023/10/24 02:14:00;;;;;;;17.42;10.98;;;;;;;;;;4923489;29;20074;-76
2023/10/24 02:16:26;;;;;;;19.70;10.65;;;;;;;;;;4907548;29;20043;-76
2023/10/24 02:18:52;;;;;;;17.98;10.30;;;;;;;;;;4923418;29;20044;-76
2023/10/24 02:21:18;;;;;;;16.48;10.48;;;;;;;;;;4907388;29;20039;-76
2023/10/24 02:23:44;;;;;;;14.80;10.40;;;;;;;;;;4923354;29;20036;-76
2023/10/24 02:26:14;;;;;;;14.98;9.90;;;;;;;;;;4922898;29;20126;-76
2023/10/24 02:28:41;;;;;;;14.95;10.25;;;;;;;;;;4923140;29;20099;-76
2023/10/24 02:31:07;;;;;;;14.30;10.27;;;;;;;;;;4892726;29;20059;-76
2023/10/24 02:33:33;;;;;;;14.98;10.52;;;;;;;;;;4891565;29;20079;-76
2023/10/24 02:36:16;;;;;;;14.98;10.07;;;10.70;99.90;;;;;;4922818;29;20051;-76
2023/10/24 02:38:42;;;;;;;14.55;9.85;;;;;;;;;;4920563;29;20130;-76
2023/10/24 02:41:08;;;;;;;14.38;9.02;;;;;;;;;;4922889;29;20048;-76
2023/10/24 02:43:35;;;;;;;13.40;9.32;;;;;;;;;;4923473;29;20039;-76
2023/10/24 02:46:05;;;;;;;13.15;8.88;;;;;;;;;;4923118;29;20044;-75
2023/10/24 02:48:32;;;;;;;12.80;9.18;;;10.50;99.90;;;;;;4923228;29;20045;-76
2023/10/24 02:50:58;;;;;;;13.38;9.20;;;;;;;;;;4922696;29;20051;-77
2023/10/24 02:53:24;;;;;;;13.13;9.35;;;;;;;;;;4906700;29;20491;-76
2023/10/24 02:55:51;;;;;;;11.50;8.55;;;;;;;;;;4907146;29;20138;-76
2023/10/24 02:58:17;;;;;;;16.30;10.02;;;10.60;99.90;;;;;;4922951;29;20511;-75
2023/10/24 03:00:45;;;;;;;11.95;9.10;;;;;;;;;;4878335;29;20078;-75
2023/10/24 03:03:11;;;;;;;11.45;8.77;;;;;;;;;;4907807;29;20036;-75
2023/10/24 03:05:37;;;;;;;12.60;8.57;;;;;;;;;;4922905;29;20035;-75
2023/10/24 03:08:04;;;;;;;16.38;8.77;;;;;;;;;;4921927;29;21724;-75
2023/10/24 03:10:30;;;;;;;11.23;8.40;;;;;;;;;;4904979;29;20062;-77
2023/10/24 03:12:56;;;;;;;12.15;8.55;;;;;;;;;;4920795;29;20051;-76
2023/10/24 03:15:22;;;;;;;10.80;8.07;;;;;;;;;;4921297;29;20579;-76
2023/10/24 03:17:48;;;;;;;11.05;8.18;;;;;;;;;;4920035;29;20043;-76
2023/10/24 03:20:15;;;;;;;11.27;8.18;;;;;;;;;;4919766;29;20036;-76
2023/10/24 03:22:41;;;;;;;11.07;8.20;;;;;;;;;;4903663;29;20055;-76
2023/10/24 03:25:07;;;;;;;10.93;8.40;;;;;;;;;;4919779;29;20036;-77
2023/10/24 03:27:33;;;;;;;10.55;7.88;;;;;;;;;;4884364;29;20058;-76
2023/10/24 03:29:59;;;;;;;10.55;7.65;;;;;;;;;;4919302;29;20058;-76
2023/10/24 03:32:27;;;;;;;11.48;8.05;;;;;;;;;;4919668;29;20106;-76
2023/10/24 03:34:53;;;;;;;9.80;7.07;;;;;;;;;;4886257;29;20123;-76
2023/10/24 03:37:20;;;;;;;9.30;6.82;;;;;;;;;;4919134;29;20031;-76
2023/10/24 03:39:46;;;;;;;8.98;7.07;;;;;;;;;;4919378;29;20051;-76
2023/10/24 03:42:15;;;;;;;9.93;7.43;;;;;;;;;;4903815;29;20051;-76
2023/10/24 03:44:41;;;;;;;8.90;7.38;;;;;;;;;;4919581;29;20051;-76
2023/10/24 03:47:08;;;;;;;10.02;7.45;;;;;;;;;;4903511;29;20044;-76
2023/10/24 03:49:34;;;;;;;9.27;7.05;;;;;;;;;;4919586;29;20531;-76
2023/10/24 03:52:00;;;;;;;9.35;7.00;;;;;;;;;;4903533;29;20040;-76
2023/10/24 03:54:26;;;;;;;8.15;6.53;;;;;;;;;;4903538;29;20074;-76
2023/10/24 03:56:52;;;;;;;8.10;6.78;;;;;;;;;;4919179;29;20058;-76
2023/10/24 03:59:18;;;;;;;8.93;7.22;;;;;;;;;;4903423;29;20036;-76
2023/10/24 04:01:44;;;;;;;8.77;6.70;;;;;;;;;;4919116;29;20035;-76
2023/10/24 04:04:10;;;;;;;10.40;7.38;;;;;;;;;;4918921;29;20134;-76
2023/10/24 04:06:37;;;;;;;10.07;7.03;;;;;;;;;;4902297;29;20374;-76
2023/10/24 04:09:06;;;;;;;9.57;7.45;;;;;;;;;;4902842;29;20062;-76
2023/10/24 04:11:33;;;;;;;9.70;7.28;;;;;;;;;;4916895;29;20032;-76
2023/10/24 04:13:59;;;;;;;9.80;6.90;;;;;;;;;;4903164;29;20044;-76
2023/10/24 04:16:26;;;;;;;12.20;7.47;;;;;;;;;;4918962;29;20040;-76
2023/10/24 04:18:52;;;;;;;9.57;7.22;;;;;;;;;;4918421;29;20057;-76
2023/10/24 04:21:18;;;;;;;9.52;6.90;;;;;;;;;;4903274;29;20126;-76
2023/10/24 04:23:45;;;;;;;8.98;7.40;;;;;;;;;;4918399;29;20033;-76
2023/10/24 04:26:11;;;;;;;8.77;6.72;;;;;;;;;;4918885;29;20071;-74
2023/10/24 04:28:38;;;;;;;9.50;7.43;;;;;;;;;;4918289;29;20086;-76
2023/10/24 04:31:04;;;;;;;9.68;7.30;;;;;;;;;;4900792;29;20051;-76
2023/10/24 04:33:30;;;;;;;9.25;7.55;;;;;;;;;;4903284;29;20046;-79
2023/10/24 04:35:57;;;;;;;12.07;7.78;;;;;;;;;;4903233;29;20044;-76
2023/10/24 04:38:23;;;;;;;9.65;7.10;;;;;;;;;;4917498;29;20058;-75
2023/10/24 04:40:52;;;;;;;9.68;7.18;;;;;;;;;;4919463;29;20122;-75
2023/10/24 04:43:18;;;;;;;9.23;7.32;;;;;;;;;;4930671;29;20078;-75
2023/10/24 04:45:45;;;;;;;10.68;7.90;;;;;;;;;;4920412;29;20086;-76
2023/10/24 04:48:11;;;;;;;11.07;8.10;;;;;;;;;;4931518;29;20059;-76
2023/10/24 04:50:38;;;;;;;10.30;8.15;;;11.00;99.90;;;;;;4919865;29;20044;-76
2023/10/24 04:53:05;;;;;;;9.50;7.47;;;;;;;;;;4919931;29;20044;-76
2023/10/24 04:55:31;;;;;;;10.27;8.23;;;;;;;;;;4921664;29;20040;-75
2023/10/24 04:57:57;;;;;;;10.25;7.68;;;;;;;;;;4922851;29;20046;-76
2023/10/24 05:00:26;;;;;;;11.35;8.13;;;;;;;;;;4925641;29;20047;-76
2023/10/24 05:02:53;;;;;;;10.55;7.97;;;;;;;;;;4899929;29;20044;-76
2023/10/24 05:05:19;;;;;;;11.68;8.25;;;;;;;;;;4928934;29;20054;-76
2023/10/24 05:07:45;;;;;;;9.90;8.25;;;;;;;;;;4930869;29;20400;-76
2023/10/24 05:10:11;;;;;;;12.02;8.48;;;;;;;;;;4920393;29;20054;-75
2023/10/24 05:12:37;;;;;;;11.27;8.45;;;;;;;;;;4927023;29;20051;-75
2023/10/24 05:15:04;;;;;;;13.68;9.27;;;;;;;;;;4903438;29;20086;-75
2023/10/24 05:17:30;;;;;;;12.75;9.00;;;;;;;;;;4932325;29;20480;-75
2023/10/24 05:20:07;;;;;;;8.82;7.70;;;;;;;;;;4924478;29;20036;-76
2023/10/24 05:22:34;;;;;;;18.48;9.15;;;;;;;;;;4917643;29;20039;-75
2023/10/24 05:25:00;;;;;;;13.30;9.90;;;;;;;;;;4898687;29;20166;-76
2023/10/24 05:27:26;;;;;;;12.07;9.95;;;;;;;;;;4920405;29;20123;-76
2023/10/24 05:29:52;;;;;;;14.80;9.90;;;;;;;;;;4921080;29;20074;-75
2023/10/24 05:32:19;;;;;;;15.35;11.02;;;;;;;;;;4900224;29;20565;-75
2023/10/24 05:34:45;;;;;;;13.52;10.77;;;;;;;;;;4917826;29;20043;-76
2023/10/24 05:37:11;;;;;;;16.85;11.23;;;;;;;;;;4921515;29;20042;-75
2023/10/24 05:39:37;;;;;;;15.60;11.48;;;;;;;;;;4917723;29;20432;-75
2023/10/24 05:42:03;;;;;;;12.43;10.75;;;;;;;;;;4885151;29;20042;-75
2023/10/24 05:44:29;;;;;;;14.48;11.43;;;;;;;;;;4917826;29;20039;-83
2023/10/24 05:46:55;;;;;;;34.42;21.55;;;;;;;;;;4903067;29;20054;-73
2023/10/24 05:49:21;;;;;;;14.85;11.52;;;;;;;;;;4931747;29;20366;-70
2023/10/24 05:51:48;;;;;;;15.52;11.60;;;;;;;;;;4907855;29;20130;-71
2023/10/24 05:54:14;;;;;;;17.25;11.88;;;;;;;;;;4918061;29;20047;-70
2023/10/24 05:56:40;;;;;;;14.88;11.48;;;;;;;;;;4918241;29;20161;-70
2023/10/24 05:59:06;;;;;;;15.05;10.85;;;;;;;;;;4918464;29;20412;-70
2023/10/24 06:01:32;;;;;;;16.13;11.52;;;;;;;;;;4918365;29;20036;-71
2023/10/24 06:03:58;;;;;;;15.85;11.10;;;;;;;;;;4918628;29;20036;-71
2023/10/24 06:06:24;;;;;;;14.25;10.48;;;;;;;;;;4902610;29;20040;-71
2023/10/24 06:08:50;;;;;;;14.05;10.70;;;;;;;;;;4923658;29;20054;-71
2023/10/24 06:11:16;;;;;;;14.75;11.27;;;;;;;;;;4926628;29;20051;-70
2023/10/24 06:13:42;;;;;;;14.15;11.30;;;;;;;;;;4896766;29;20039;-70
2023/10/24 06:16:12;;;;;;;13.60;11.70;;;;;;;;;;4926860;29;20135;-70
2023/10/24 06:18:38;;;;;;;14.30;11.13;;;;;;;;;;4926817;29;20044;-70
2023/10/24 06:21:05;;;;;;;14.27;11.65;;;11.40;99.90;;;;;;4927917;29;20044;-71
2023/10/24 06:23:32;;;;;;;12.40;11.10;;;;;;;;;;4920658;29;20127;-71
2023/10/24 06:25:58;;;;;;;13.90;10.70;;;;;;;;;;4909228;29;20043;-70
2023/10/24 06:28:25;;;;;;;17.75;11.70;;;11.30;99.90;;;;;;4901927;29;20089;-72
2023/10/24 06:31:01;;;;;;;14.65;10.90;;;;;;;;;;4920362;29;20039;-70
2023/10/24 06:33:27;;;;;;;12.48;10.82;;;;;;;;;;4918693;29;20044;-72
2023/10/24 06:35:57;;;;;;;14.95;10.98;;;;;;;;;;4920192;29;20130;-70
2023/10/24 06:38:23;;;;;;;14.50;11.10;;;;;;;;;;4917462;29;20052;-70
2023/10/24 06:40:50;;;;;;;15.75;11.30;;;;;;;;;;4918565;29;20437;-70
2023/10/24 06:43:17;;;;;;;16.20;11.13;;;11.60;99.90;;;;;;4916270;29;20043;-70
2023/10/24 06:45:45;;;;;;;15.88;11.27;;;;;;;;;;4918208;29;20044;-70
2023/10/24 06:48:11;;;;;;;16.05;11.07;;;;;;;;;;4920933;29;20051;-70
2023/10/24 06:50:41;;;;;;;16.50;10.73;;;;;;;;;;4927220;29;20052;-70
2023/10/24 06:53:07;;;;;;;15.85;10.73;;;;;;;;;;4922526;29;20048;-70
2023/10/24 06:55:33;;;;;;;13.52;10.75;;;;;;;;;;4920700;29;20039;-70
2023/10/24 06:58:00;;;;;;;14.68;10.00;;;;;;;;;;4920256;29;20044;-70
2023/10/24 07:00:26;;;;;;;15.80;10.50;;;;;;;;;;4920700;29;20036;-71
2023/10/24 07:02:52;;;;;;;17.48;11.43;;;;;;;;;;4929764;29;20066;-70
2023/10/24 07:05:19;;;;;;;11.48;9.05;;;;;;;;;;4929036;29;20051;-70
2023/10/24 07:07:45;;;;;;;15.77;9.18;;;;;;;;;;4925489;29;20086;-70
2023/10/24 07:10:11;;;;;;;10.63;8.48;;;;;;;;;;4923777;29;20075;-70
2023/10/24 07:12:37;;;;;;;12.18;8.73;;;;;;;;;;4919742;29;20051;-70
2023/10/24 07:15:04;;;;;;;10.57;8.07;;;;;;;;;;4916259;29;20043;-70
2023/10/24 07:17:30;;;;;;;11.82;7.45;;;;;;;;;;4904080;29;20193;-70
2023/10/24 07:19:59;;;;;;;13.43;7.95;;;11.50;99.90;;;;;;4904102;29;20051;-70
2023/10/24 07:22:26;;;;;;;10.55;8.13;;;;;;;;;;4920592;29;20043;-71
2023/10/24 07:24:52;;;;;;;10.70;8.05;;;;;;;;;;4920719;29;20054;-71
2023/10/24 07:27:18;;;;;;;11.63;7.47;;;;;;;;;;4920914;29;20051;-70
2023/10/24 07:29:45;;;;;;;10.90;7.80;;;;;;;;;;4905105;29;20079;-70
2023/10/24 07:32:11;;;;;;;11.75;7.75;;;;;;;;;;4904842;29;20135;-70
2023/10/24 07:34:41;;;;;;;10.23;7.60;;;;;;;;;;4933688;29;20066;-71
2023/10/24 07:37:07;;;;;;;11.60;7.30;;;;;;;;;;4926832;29;20059;-71
2023/10/24 07:39:33;;;;;;;10.77;7.80;;;;;;;;;;4921006;29;20056;-71
2023/10/24 07:41:59;;;;;;;10.13;7.50;;;;;;;;;;4921313;29;20036;-71
2023/10/24 07:44:25;;;;;;;11.95;7.90;;;;;;;;;;4920673;29;20071;-70
2023/10/24 07:46:52;;;;;;;13.93;7.90;;;;;;;;;;4920525;29;20552;-71
2023/10/24 07:49:18;;;;;;;12.55;8.02;;;;;;;;;;4920707;29;20106;-71
2023/10/24 07:51:44;;;;;;;13.73;8.38;;;;;;;;;;4920581;29;20130;-71
2023/10/24 07:54:13;;;;;;;12.43;8.35;;;;;;;;;;4920497;29;20054;-71
2023/10/24 07:56:39;;;;;;;13.65;9.00;;;;;;;;;;4919924;29;20390;-71
2023/10/24 07:59:07;;;;;;;12.60;9.20;;;;;;;;;;4920579;29;20467;-71
2023/10/24 08:01:33;;;;;;;14.60;9.00;;;;;;;;;;4920611;29;20047;-71
2023/10/24 08:03:59;;;;;;;17.10;9.82;;;;;;;;;;4920427;29;20039;-71
2023/10/24 08:06:25;;;;;;;13.57;8.98;;;;;;;;;;4920563;29;20404;-71
2023/10/24 08:08:51;;;;;;;16.63;9.68;;;;;;;;;;4920683;29;20062;-71
2023/10/24 08:11:18;;;;;;;14.25;9.65;;;;;;;;;;4920312;29;20046;-71
2023/10/24 08:13:44;;;;;;;13.35;9.32;;;;;;;;;;4920473;29;20392;-71
2023/10/24 08:16:11;;;;;;;14.80;9.80;;;;;;;;;;4919980;29;20043;-71
2023/10/24 08:18:37;;;;;;;16.58;10.18;;;11.50;99.90;;;;;;4920005;29;20488;-71
2023/10/24 08:21:04;;;;;;;19.63;11.02;;;;;;;;;;4920153;29;20079;-71
2023/10/24 08:23:30;;;;;;;14.25;10.13;;;;;;;;;;4919973;29;20507;-71
2023/10/24 08:25:59;;;;;;;16.10;10.30;;;;;;;;;;4919959;29;20044;-71
2023/10/24 08:28:25;;;;;;;17.90;11.80;;;;;;;;;;4919977;29;20043;-71
2023/10/24 08:30:52;;;;;;;15.18;10.02;;;;;;;;;;4920066;29;20130;-71
2023/10/24 08:33:20;;;;;;;16.13;10.95;;;;;;;;;;4923745;29;20118;-71
2023/10/24 08:35:46;;;;;;;16.70;11.38;;;11.30;99.90;;;;;;4937049;29;20235;-71
2023/10/24 08:38:12;;;;;;;19.10;12.73;;;;;;;;;;4936810;29;20047;-71
2023/10/24 08:40:40;;;;;;;17.48;12.57;;;;;;;;;;4935469;29;20059;-71
2023/10/24 08:43:06;;;;;;;20.58;12.10;;;;;;;;;;4935743;29;20086;-71
2023/10/24 08:45:32;;;;;;;19.63;12.38;;;;;;;;;;4935606;29;20051;-71
2023/10/24 08:48:00;;;;;;;18.77;12.38;;;11.20;99.90;;;;;;4920002;29;20374;-71
2023/10/24 08:50:26;;;;;;;20.83;13.75;;;;;;;;;;4935496;29;20047;-71
2023/10/24 08:52:52;;;;;;;23.33;14.25;;;;;;;;;;4904010;29;20044;-71
2023/10/24 08:55:19;;;;;;;18.73;13.48;;;;;;;;;;4935293;29;20511;-71
2023/10/24 08:57:45;;;;;;;21.15;13.40;;;11.40;99.90;;;;;;4935226;29;20540;-71
2023/10/24 09:00:12;;;;;;;19.00;14.07;;;;;;;;;;4935305;29;20397;-71
2023/10/24 09:02:39;;;;;;;22.17;15.18;;;;;;;;;;4935290;29;20102;-71
2023/10/24 09:05:06;;;;;;;23.33;14.40;;;;;;;;;;4935304;29;20057;-71
2023/10/24 09:07:32;;;;;;;21.83;14.57;;;;;;;;;;4935271;29;20039;-71
2023/10/24 09:09:58;;;;;;;24.90;15.05;;;;;;;;;;4934564;29;20130;-71
2023/10/24 09:12:24;;;;;;;20.60;14.80;;;;;;;;;;4934907;29;20130;-71
2023/10/24 09:14:50;;;;;;;20.73;14.50;;;;;;;;;;4935250;29;20375;-71
2023/10/24 09:17:16;;;;;;;20.73;14.07;;;;;;;;;;4935104;29;20365;-71
2023/10/24 09:19:43;;;;;;;19.50;13.80;;;;;;;;;;4916110;29;20489;-71
2023/10/24 09:22:10;;;;;;;19.40;13.82;;;;;;;;;;4925219;29;20054;-71
2023/10/24 09:24:36;;;;;;;20.83;14.52;;;;;;;;;;4903558;29;20058;-71
2023/10/24 09:27:02;;;;;;;20.23;14.95;;;;;;;;;;4918837;29;20318;-71
2023/10/24 09:29:32;;;;;;;21.27;15.40;;;;;;;;;;4918978;29;20079;-71
2023/10/24 09:31:58;;;;;;;21.42;13.93;;;;;;;;;;4919043;29;20155;-71
2023/10/24 09:34:24;;;;;;;20.92;15.35;;;;;;;;;;4918707;29;20130;-71
2023/10/24 09:36:51;;;;;;;20.90;14.90;;;;;;;;;;4918728;29;20118;-71
2023/10/24 09:39:17;;;;;;;21.15;14.68;;;;;;;;;;4918535;29;20056;-71
2023/10/24 09:41:44;;;;;;;21.10;14.88;;;;;;;;;;4918667;29;20066;-71
2023/10/24 09:44:11;;;;;;;20.75;14.00;;;;;;;;;;4918917;29;20126;-71
2023/10/24 09:46:38;;;;;;;22.58;15.95;;;11.70;99.90;;;;;;4887579;29;20047;-71
2023/10/24 09:49:07;;;;;;;19.83;15.00;;;11.60;99.90;;;;;;4918568;29;20048;-71
2023/10/24 09:51:38;;;;;;;22.35;15.27;;;11.60;99.90;;;;;;4902797;29;20511;-71
2023/10/24 09:54:05;;;;;;;21.42;14.63;;;11.60;99.90;;;;;;4903341;29;20052;-71
2023/10/24 09:56:32;;;;;;;22.08;14.48;;;11.70;99.90;;;;;;4918427;29;20046;-71
2023/10/24 09:58:58;;;;;;;18.65;13.93;;;;;;;;;;4918441;29;20044;-71
2023/10/24 10:01:28;;;;;;;22.67;14.95;;;11.80;99.90;;;;;;4918474;29;20633;-71
2023/10/24 10:04:00;;;;;;;21.60;15.00;;;;;;;;;;4918669;29;20388;-71
2023/10/24 10:06:30;;;;;;;24.10;16.17;;;;;;;;;;4918657;29;20047;-71
2023/10/24 10:08:58;;;;;;;23.63;14.82;;;11.60;99.90;;;;;;4918447;29;20496;-71
2023/10/24 10:11:26;;;;;;;23.65;15.55;;;;;;;;;;4918523;29;20047;-71
2023/10/24 10:14:11;;;;;;;20.20;14.50;;;11.70;99.90;;;;;;4918726;29;20194;-71
2023/10/24 10:16:43;;;;;;;21.60;14.90;;;;;;;;;;4918368;29;20043;-71
2023/10/24 10:19:31;;;;;;;20.63;14.93;;;11.90;99.90;;;;;;4918672;29;20043;-71
2023/10/24 10:22:24;;;;;;;21.55;15.63;;;11.60;99.90;;;;;;4906726;29;20058;-71
2023/10/24 10:24:50;;;;;;;24.42;14.45;;;;;;;;;;4906455;29;20050;-71
2023/10/24 10:27:36;;;;;;;19.70;14.13;;;12.00;99.90;;;;;;4922371;29;20039;-71
2023/10/24 10:30:16;;;;;;;18.70;14.35;;;;;;;;;;4922181;29;20044;-70
2023/10/24 10:32:42;;;;;;;20.38;14.90;;;;;;;;;;4921823;29;20126;-71
2023/10/24 10:35:08;;;;;;;23.77;15.73;;;;;;;;;;4921883;29;20054;-71
2023/10/24 10:37:37;;;;;;;22.33;15.45;;;;;;;;;;4921922;29;20507;-71
2023/10/24 10:40:15;;;;;;;22.88;15.88;;;;;;;;;;4890406;29;20404;-71
2023/10/24 10:42:46;;;;;;;21.02;14.98;;;;;;;;;;4922049;29;20165;-71
2023/10/24 10:45:25;;;;;;;23.45;15.05;;;;;;;;;;4906395;29;20084;-71
2023/10/24 10:47:52;;;;;;;20.70;14.60;;;11.70;99.90;;;;;;4906365;29;20120;-71
2023/10/24 10:50:27;;;;;;;22.27;15.18;;;;;;;;;;4906025;29;20063;-71
2023/10/24 10:53:12;;;;;;;22.98;15.50;;;;;;;;;;4922045;29;20051;-70
2023/10/24 10:55:41;;;;;;;23.38;15.25;;;;;;;;;;4905883;29;20058;-72
2023/10/24 10:58:16;;;;;;;23.27;15.90;;;;;;;;;;4921542;29;20044;-70
2023/10/24 11:00:58;;;;;;;25.02;15.02;;;12.00;99.90;;;;;;4921372;29;20043;-71
2023/10/24 11:03:53;;;;;;;20.77;14.95;;;;;;;;;;4921568;29;20373;-71
2023/10/24 11:06:19;;;;;;;22.17;15.60;;;;;;;;;;4905859;29;20417;-71
2023/10/24 11:09:06;;;;;;;22.55;15.60;;;11.90;99.90;;;;;;4921375;29;20044;-71
2023/10/24 11:11:33;;;;;;;20.92;14.68;;;;;;;;;;4921236;29;20488;-71
2023/10/24 11:14:15;;;;;;;21.25;15.55;;;;;;;;;;4921317;29;20500;-71
2023/10/24 11:16:42;;;;;;;21.90;15.45;;;11.80;99.90;;;;;;4905425;29;20043;-71
2023/10/24 11:19:10;;;;;;;21.52;15.80;;;;;;;;;;4905585;29;20103;-71
2023/10/24 11:21:36;;;;;;;21.23;15.05;;;;;;;;;;4921015;29;20044;-71
2023/10/24 11:24:02;;;;;;;22.42;15.95;;;;;;;;;;4905356;29;20122;-71
2023/10/24 11:26:28;;;;;;;22.20;15.45;;;;;;;;;;4920917;29;20051;-71
2023/10/24 11:28:54;;;;;;;24.38;16.73;;;;;;;;;;4890547;29;20400;-70
2023/10/24 11:31:25;;;;;;;22.10;16.23;;;11.90;99.90;;;;;;4927181;29;20044;-72
2023/10/24 11:33:52;;;;;;;24.08;16.65;;;;;;;;;;4905271;29;20043;-72
2023/10/24 11:36:18;;;;;;;23.65;15.98;;;;;;;;;;4891550;29;20036;-72
2023/10/24 11:38:45;;;;;;;22.30;16.00;;;;;;;;;;4920518;29;20127;-70
2023/10/24 11:41:11;;;;;;;20.92;15.57;;;;;;;;;;4920687;29;20044;-70
2023/10/24 11:43:37;;;;;;;20.60;15.00;;;;;;;;;;4920738;29;20043;-69
2023/10/24 11:46:03;;;;;;;24.20;15.65;;;;;;;;;;4920160;29;20102;-70
2023/10/24 11:48:29;;;;;;;23.08;15.75;;;;;;;;;;4920350;29;20035;-70
2023/10/24 11:50:55;;;;;;;17.77;13.93;;;;;;;;;;4885896;29;20131;-70
2023/10/24 11:53:22;;;;;;;22.75;15.43;;;;;;;;;;4886064;29;20050;-70
2023/10/24 11:55:48;;;;;;;21.55;15.00;;;;;;;;;;4913587;29;20180;-69
2023/10/24 11:58:14;;;;;;;21.55;15.75;;;;;;;;;;4920204;29;20468;-69
2023/10/24 12:00:41;;;;;;;21.75;15.20;;;;;;;;;;4904741;29;20135;-70
2023/10/24 12:03:07;;;;;;;19.17;14.95;;;;;;;;;;4919830;29;20119;-69
2023/10/24 12:05:33;;;;;;;17.27;14.35;;;;;;;;;;4920144;29;20448;-70
2023/10/24 12:08:00;;;;;;;18.45;14.43;;;;;;;;;;4919931;29;20044;-70
2023/10/24 12:10:30;;;;;;;20.75;14.90;;;;;;;;;;4920211;29;20239;-70
2023/10/24 12:13:05;;;;;;;19.05;14.50;;;;;;;;;;4919381;29;20048;-70
2023/10/24 12:15:31;;;;;;;18.77;14.55;;;;;;;;;;4901479;29;20048;-70
2023/10/24 12:18:01;;;;;;;17.92;14.32;;;;;;;;;;4914702;29;20398;-70
2023/10/24 12:20:27;;;;;;;18.33;13.80;;;;;;;;;;4911535;29;20066;-70
2023/10/24 12:22:53;;;;;;;19.20;13.57;;;;;;;;;;4918412;29;20133;-70
2023/10/24 12:25:19;;;;;;;17.00;13.45;;;;;;;;;;4919880;29;20051;-70
2023/10/24 12:27:46;;;;;;;15.88;12.23;;;;;;;;;;4919153;29;20039;-70
2023/10/24 12:30:13;;;;;;;15.95;13.00;;;11.90;99.90;;;;;;4918404;29;20503;-70
2023/10/24 12:32:41;;;;;;;15.65;11.82;;;;;;;;;;4918040;29;20083;-70
2023/10/24 12:35:07;;;;;;;18.10;12.50;;;;;;;;;;4918191;29;20060;-70
2023/10/24 12:37:34;;;;;;;15.70;12.43;;;;;;;;;;4914950;29;20047;-70
2023/10/24 12:40:00;;;;;;;16.15;12.45;;;;;;;;;;4900880;29;20144;-69
2023/10/24 12:42:26;;;;;;;14.45;11.68;;;;;;;;;;4873420;29;20036;-70
2023/10/24 12:44:52;;;;;;;13.70;11.98;;;;;;;;;;4919176;29;20126;-70
2023/10/24 12:47:20;;;;;;;15.60;12.18;;;;;;;;;;4919871;29;20048;-70
2023/10/24 12:49:46;;;;;;;15.13;12.05;;;;;;;;;;4899382;29;20107;-70
2023/10/24 12:52:12;;;;;;;14.50;11.45;;;;;;;;;;4918696;29;20433;-70
2023/10/24 12:54:38;;;;;;;14.23;11.00;;;;;;;;;;4919639;29;20043;-70
2023/10/24 12:57:04;;;;;;;15.05;12.00;;;;;;;;;;4915855;29;20122;-70
2023/10/24 12:59:30;;;;;;;13.05;11.05;;;;;;;;;;4890665;29;20042;-70
2023/10/24 13:01:57;;;;;;;14.35;11.48;;;;;;;;;;4917848;29;20047;-70
2023/10/24 13:04:23;;;;;;;14.02;11.07;;;;;;;;;;4916277;29;20048;-70
2023/10/24 13:06:54;;;;;;;15.18;11.82;;;;;;;;;;4916907;29;20570;-70
2023/10/24 13:09:20;;;;;;;14.13;11.32;;;;;;;;;;4886651;29;20365;-70
2023/10/24 13:11:47;;;;;;;15.40;12.20;;;;;;;;;;4885877;29;20381;-70
2023/10/24 13:14:15;;;;;;;15.25;12.30;;;;;;;;;;4913411;29;20134;-70
2023/10/24 13:16:43;;;;;;;15.48;12.02;;;12.10;99.90;;;;;;4873248;29;20169;-70
2023/10/24 13:19:10;;;;;;;14.18;11.43;;;;;;;;;;4900226;29;20075;-70
2023/10/24 13:21:38;;;;;;;17.17;11.77;;;;;;;;;;4899931;29;20115;-70
2023/10/24 13:24:05;;;;;;;12.98;11.63;;;;;;;;;;4916588;29;20039;-70
2023/10/24 13:26:34;;;;;;;14.25;12.07;;;12.00;99.90;;;;;;4917049;29;20048;-70
2023/10/24 13:29:01;;;;;;;14.02;11.95;;;;;;;;;;4871887;29;20039;-70
2023/10/24 13:31:27;;;;;;;16.25;12.02;;;;;;;;;;4917519;29;20039;-71
2023/10/24 13:33:54;;;;;;;16.45;11.63;;;;;;;;;;4885395;29;20048;-70
2023/10/24 13:36:23;;;;;;;18.67;12.70;;;;;;;;;;4900071;29;20460;-70
2023/10/24 13:39:42;;;;;;;14.38;12.82;;;11.80;99.90;;;;;;4900531;29;20056;-70
2023/10/24 13:42:09;;;;;;;15.23;12.07;;;;;;;;;;4917400;29;20048;-70
2023/10/24 13:44:35;;;;;;;15.32;13.15;;;;;;;;;;4916178;29;20031;-71
2023/10/24 13:47:01;;;;;;;15.20;12.18;;;;;;;;;;4916069;29;20126;-71
2023/10/24 13:49:27;;;;;;;17.48;13.38;;;;;;;;;;4901481;29;20044;-71
2023/10/24 13:51:54;;;;;;;16.05;13.05;;;;;;;;;;4917114;29;20044;-70
2023/10/24 13:54:20;;;;;;;17.80;13.02;;;;;;;;;;4915740;29;20039;-70
2023/10/24 13:56:46;;;;;;;16.73;12.30;;;;;;;;;;4916726;29;20063;-71
2023/10/24 13:59:12;;;;;;;21.15;13.40;;;;;;;;;;4914996;29;20376;-71
2023/10/24 14:01:39;;;;;;;16.15;13.43;;;;;;;;;;4917468;29;20047;-70
2023/10/24 14:04:05;;;;;;;15.88;12.98;;;;;;;;;;4900600;29;20504;-71
2023/10/24 14:06:32;;;;;;;17.27;12.82;;;;;;;;;;4917083;29;20074;-71
2023/10/24 14:08:58;;;;;;;16.45;12.95;;;;;;;;;;4917045;29;20040;-71
2023/10/24 14:11:24;;;;;;;15.70;13.00;;;;;;;;;;4917300;29;20118;-71
2023/10/24 14:13:50;;;;;;;18.15;13.23;;;;;;;;;;4917013;29;20118;-71